createdAt,value
2022-11-30T00:00:24.208Z,95018.41
2022-11-30T00:02:55.448Z,95020.88
2022-11-30T00:05:24.737Z,95023.09
2022-11-30T00:07:54.812Z,95022.69
2022-11-30T00:10:24.733Z,95018.66
2022-11-30T00:12:55.710Z,95024.50
2022-11-30T00:15:24.683Z,95029.78
2022-11-30T00:17:59.375Z,95028.34
2022-11-30T00:20:30.048Z,95028.97
2022-11-30T00:23:00.301Z,95025.31
2022-11-30T00:25:29.449Z,95033.41
2022-11-30T00:28:02.886Z,95027.75
2022-11-30T00:30:32.085Z,95023.88
2022-11-30T00:33:03.391Z,95024.91
2022-11-30T00:35:33.116Z,95028.34
2022-11-30T00:38:04.214Z,95025.13
2022-11-30T00:40:33.231Z,95028.34
2022-11-30T00:43:02.343Z,95024.09
2022-11-30T00:45:31.470Z,95023.88
2022-11-30T00:48:01.996Z,95022.66
2022-11-30T00:50:31.155Z,95019.25
2022-11-30T00:53:00.403Z,95018.03
2022-11-30T00:55:30.545Z,95024.06
2022-11-30T00:57:59.605Z,95025.88
2022-11-30T01:00:28.864Z,95025.28
2022-11-30T01:02:59.592Z,95013.34
2022-11-30T01:05:30.399Z,95015.97
2022-11-30T01:08:01.629Z,95017.59
2022-11-30T01:10:30.911Z,95010.31
2022-11-30T01:12:59.900Z,95017.19
2022-11-30T01:15:29.407Z,95012.97
2022-11-30T01:18:00.286Z,95015.34
2022-11-30T01:20:30.922Z,95022.84
2022-11-30T01:22:59.930Z,95013.31
2022-11-30T01:25:28.974Z,95009.88
2022-11-30T01:27:57.913Z,95010.72
2022-11-30T01:30:27.253Z,95014.16
2022-11-30T01:32:56.385Z,95014.94
2022-11-30T01:35:25.598Z,94998.53
2022-11-30T01:37:56.006Z,95004.41
2022-11-30T01:40:25.269Z,95005.25
2022-11-30T01:42:54.315Z,94992.28
2022-11-30T01:45:23.448Z,94990.09
2022-11-30T01:47:56.778Z,94992.91
2022-11-30T01:50:29.611Z,94987.28
2022-11-30T01:53:01.173Z,94978.00
2022-11-30T01:55:34.231Z,94982.66
2022-11-30T01:58:05.485Z,94980.44
2022-11-30T02:00:34.572Z,94978.81
2022-11-30T02:03:07.591Z,94981.44
2022-11-30T02:05:38.570Z,94982.28
2022-11-30T02:08:11.107Z,94985.28
2022-11-30T02:10:42.647Z,94983.06
2022-11-30T02:13:39.354Z,94977.41
2022-11-30T02:16:20.134Z,94981.06
2022-11-30T02:19:00.116Z,94973.00
2022-11-30T02:21:40.148Z,94980.66
2022-11-30T02:24:38.311Z,94981.66
2022-11-30T02:27:32.813Z,94976.00
2022-11-30T02:30:07.151Z,94978.22
2022-11-30T02:32:41.775Z,94980.66
2022-11-30T02:35:13.578Z,94984.69
2022-11-30T02:37:43.393Z,94986.94
2022-11-30T02:40:16.668Z,94988.94
2022-11-30T02:42:47.003Z,94979.47
2022-11-30T02:45:17.948Z,94978.03
2022-11-30T02:47:52.407Z,94979.66
2022-11-30T02:50:27.255Z,94982.28
2022-11-30T02:52:57.188Z,94974.19
2022-11-30T02:55:28.089Z,94974.81
2022-11-30T02:57:57.178Z,94979.84
2022-11-30T03:00:28.005Z,94974.56
2022-11-30T03:02:57.237Z,94975.00
2022-11-30T03:05:26.370Z,94969.16
2022-11-30T03:07:55.529Z,94964.72
2022-11-30T03:10:24.626Z,94963.09
2022-11-30T03:12:53.546Z,94963.84
2022-11-30T03:15:22.549Z,94975.59
2022-11-30T03:17:53.002Z,94992.56
2022-11-30T03:20:22.062Z,94994.59
2022-11-30T03:22:51.098Z,94989.75
2022-11-30T03:25:20.203Z,94994.38
2022-11-30T03:27:49.273Z,94987.13
2022-11-30T03:30:18.559Z,94987.75
2022-11-30T03:32:47.694Z,94980.88
2022-11-30T03:35:18.101Z,94982.69
2022-11-30T03:37:47.256Z,94982.47
2022-11-30T03:40:16.608Z,94980.47
2022-11-30T03:42:46.341Z,94983.88
2022-11-30T03:45:15.353Z,94988.53
2022-11-30T03:47:45.253Z,94981.06
2022-11-30T03:50:14.378Z,94988.34
2022-11-30T03:52:45.080Z,94989.72
2022-11-30T03:55:13.955Z,94994.00
2022-11-30T03:57:42.912Z,94986.13
2022-11-30T04:00:13.729Z,94991.78
2022-11-30T04:02:44.971Z,94999.84
2022-11-30T04:05:14.161Z,94990.16
2022-11-30T04:07:44.841Z,94988.16
2022-11-30T04:10:13.996Z,94991.97
2022-11-30T04:12:42.864Z,94991.16
2022-11-30T04:15:12.560Z,94993.59
2022-11-30T04:17:41.535Z,94990.16
2022-11-30T04:20:11.196Z,94987.72
2022-11-30T04:22:39.978Z,94986.94
2022-11-30T04:25:11.143Z,94996.81
2022-11-30T04:27:41.532Z,94996.22
2022-11-30T04:30:11.700Z,94994.78
2022-11-30T04:32:40.795Z,95008.31
2022-11-30T04:35:10.853Z,95005.31
2022-11-30T04:37:39.804Z,95005.69
2022-11-30T04:40:11.682Z,94991.75
2022-11-30T04:42:41.827Z,94990.75
2022-11-30T04:45:11.941Z,95002.66
2022-11-30T04:47:42.019Z,94997.03
2022-11-30T04:50:11.889Z,95000.44
2022-11-30T04:52:44.074Z,94999.63
2022-11-30T04:55:19.821Z,95008.09
2022-11-30T04:57:51.010Z,95004.88
2022-11-30T05:00:22.057Z,94997.22
2022-11-30T05:02:53.425Z,95001.66
2022-11-30T05:05:23.009Z,95003.66
2022-11-30T05:07:57.784Z,94999.41
2022-11-30T05:10:30.315Z,94991.78
2022-11-30T05:13:01.492Z,95001.84
2022-11-30T05:15:31.652Z,95002.22
2022-11-30T05:18:02.436Z,95005.47
2022-11-30T05:20:32.516Z,95004.25
2022-11-30T05:23:02.496Z,95004.47
2022-11-30T05:25:35.752Z,95004.66
2022-11-30T05:28:15.910Z,95001.41
2022-11-30T05:30:46.877Z,95009.50
2022-11-30T05:33:17.571Z,95010.09
2022-11-30T05:35:48.520Z,95008.69
2022-11-30T05:38:18.693Z,95005.88
2022-11-30T05:40:50.153Z,95012.34
2022-11-30T05:43:21.759Z,95016.19
2022-11-30T05:46:01.387Z,95013.16
2022-11-30T05:48:33.570Z,95013.38
2022-11-30T05:51:10.855Z,95012.75
2022-11-30T05:53:42.689Z,95012.53
2022-11-30T05:56:16.411Z,95017.00
2022-11-30T05:58:46.566Z,95022.84
2022-11-30T06:01:22.184Z,95021.66
2022-11-30T06:03:53.629Z,95029.91
2022-11-30T06:06:23.412Z,95027.09
2022-11-30T06:08:52.650Z,95036.16
2022-11-30T06:11:35.865Z,95034.34
2022-11-30T06:14:05.470Z,95033.75
2022-11-30T06:16:34.525Z,95030.50
2022-11-30T06:19:03.896Z,95035.78
2022-11-30T06:21:32.899Z,95040.41
2022-11-30T06:24:02.468Z,95039.81
2022-11-30T06:26:33.045Z,95042.28
2022-11-30T06:29:02.222Z,95045.72
2022-11-30T06:31:33.213Z,95055.41
2022-11-30T06:34:02.811Z,95049.53
2022-11-30T06:36:36.205Z,95053.59
2022-11-30T06:39:05.719Z,95050.38
2022-11-30T06:41:36.506Z,95053.59
2022-11-30T06:44:09.781Z,95047.31
2022-11-30T06:46:39.528Z,95040.66
2022-11-30T06:49:08.678Z,95050.75
2022-11-30T06:51:39.982Z,95054.97
2022-11-30T06:54:09.678Z,95052.56
2022-11-30T06:56:41.522Z,95048.56
2022-11-30T06:59:10.971Z,95046.72
2022-11-30T07:01:40.028Z,95044.72
2022-11-30T07:04:11.386Z,95046.72
2022-11-30T07:06:40.413Z,95043.69
2022-11-30T07:09:10.627Z,95049.78
2022-11-30T07:11:42.041Z,95049.97
2022-11-30T07:14:11.117Z,95046.53
2022-11-30T07:16:40.202Z,95042.28
2022-11-30T07:19:09.523Z,95048.13
2022-11-30T07:21:38.676Z,95053.00
2022-11-30T07:24:25.699Z,95046.13
2022-11-30T07:26:56.335Z,95051.38
2022-11-30T07:29:25.639Z,95057.66
2022-11-30T07:31:55.684Z,95054.41
2022-11-30T07:34:24.896Z,95044.91
2022-11-30T07:36:54.250Z,95047.34
2022-11-30T07:39:24.623Z,95053.19
2022-11-30T07:41:53.782Z,95057.25
2022-11-30T07:44:24.301Z,95052.41
2022-11-30T07:46:54.550Z,95062.91
2022-11-30T07:49:23.534Z,95057.03
2022-11-30T07:51:52.560Z,95052.41
2022-11-30T07:54:21.692Z,95052.78
2022-11-30T07:56:50.731Z,95058.88
2022-11-30T07:59:19.810Z,95052.38
2022-11-30T08:01:50.427Z,95049.75
2022-11-30T08:04:19.658Z,95048.34
2022-11-30T08:06:48.694Z,95050.97
2022-11-30T08:09:20.660Z,95050.34
2022-11-30T08:11:50.555Z,95043.72
2022-11-30T08:14:19.579Z,95052.59
2022-11-30T08:16:50.329Z,95049.34
2022-11-30T08:19:20.044Z,95049.78
2022-11-30T08:21:49.538Z,95057.66
2022-11-30T08:24:18.963Z,95055.22
2022-11-30T08:26:48.240Z,95058.88
2022-11-30T08:29:17.347Z,95062.69
2022-11-30T08:31:46.439Z,95053.00
2022-11-30T08:34:17.094Z,95059.84
2022-11-30T08:36:50.342Z,95055.63
2022-11-30T08:39:21.488Z,95050.16
2022-11-30T08:41:52.304Z,95058.25
2022-11-30T08:44:21.410Z,95060.69
2022-11-30T08:46:52.149Z,95058.03
2022-11-30T08:49:25.033Z,95060.69
2022-11-30T08:54:48.248Z,95064.72
2022-11-30T08:57:22.010Z,95051.38
2022-11-30T08:59:51.414Z,95067.75
2022-11-30T09:02:21.301Z,95065.94
2022-11-30T09:04:53.726Z,95055.19
2022-11-30T09:07:23.018Z,95067.34
2022-11-30T09:09:52.160Z,95065.72
2022-11-30T09:12:23.402Z,95056.44
2022-11-30T09:14:57.742Z,95062.06
2022-11-30T09:17:27.814Z,95061.69
2022-11-30T09:19:58.559Z,95066.75
2022-11-30T09:22:29.495Z,95062.69
2022-11-30T09:24:59.718Z,95070.78
2022-11-30T09:27:30.691Z,95072.22
2022-11-30T09:30:01.726Z,95074.63
2022-11-30T09:32:32.667Z,95085.53
2022-11-30T09:35:06.593Z,95079.69
2022-11-30T09:37:39.200Z,95089.00
2022-11-30T09:40:09.839Z,95094.06
2022-11-30T09:42:50.751Z,95106.59
2022-11-30T09:45:24.939Z,95099.13
2022-11-30T09:48:24.521Z,95095.47
2022-11-30T09:50:56.703Z,95088.81
2022-11-30T09:53:36.252Z,95078.50
2022-11-30T09:56:16.913Z,95071.63
2022-11-30T09:58:50.058Z,95078.88
2022-11-30T10:01:21.993Z,95069.19
2022-11-30T10:03:51.594Z,95063.31
2022-11-30T10:06:28.312Z,95066.53
2022-11-30T10:09:25.466Z,95066.56
2022-11-30T10:12:01.346Z,95062.09
2022-11-30T10:15:00.267Z,95060.28
2022-11-30T10:17:38.873Z,95055.59
2022-11-30T10:20:22.760Z,95042.06
2022-11-30T10:23:10.862Z,95043.09
2022-11-30T10:25:50.876Z,95036.44
2022-11-30T10:28:47.027Z,95034.03
2022-11-30T10:31:18.571Z,95040.69
2022-11-30T10:33:49.693Z,95039.06
2022-11-30T10:36:27.005Z,95030.97
2022-11-30T10:39:03.877Z,95041.03
2022-11-30T10:41:37.047Z,95041.66
2022-11-30T10:44:13.044Z,95038.63
2022-11-30T10:46:47.584Z,95040.66
2022-11-30T10:49:20.151Z,95043.69
2022-11-30T10:51:55.704Z,95047.94
2022-11-30T10:54:26.336Z,95047.13
2022-11-30T10:56:55.800Z,95048.97
2022-11-30T10:59:28.051Z,95045.75
2022-11-30T11:01:57.572Z,95049.75
2022-11-30T11:04:28.132Z,95047.13
2022-11-30T11:07:00.423Z,95040.66
2022-11-30T11:09:42.466Z,95037.66
2022-11-30T11:12:19.330Z,95034.19
2022-11-30T11:15:00.876Z,95028.75
2022-11-30T11:17:33.305Z,95020.84
2022-11-30T11:20:04.285Z,95004.28
2022-11-30T11:22:34.409Z,95011.38
2022-11-30T11:25:20.914Z,95011.56
2022-11-30T11:27:54.027Z,95011.97
2022-11-30T11:30:30.433Z,95007.91
2022-11-30T11:33:01.353Z,95005.91
2022-11-30T11:35:36.767Z,95011.78
2022-11-30T11:38:19.344Z,95024.09
2022-11-30T11:41:00.313Z,95022.88
2022-11-30T11:43:31.735Z,95021.47
2022-11-30T11:46:03.555Z,95022.69
2022-11-30T11:48:37.014Z,95032.19
2022-11-30T11:51:08.585Z,95027.13
2022-11-30T11:53:57.575Z,95032.19
2022-11-30T11:56:32.045Z,95028.94
2022-11-30T11:59:07.193Z,95027.13
2022-11-30T12:01:48.901Z,95025.31
2022-11-30T12:04:42.289Z,95031.78
2022-11-30T12:07:18.944Z,95024.09
2022-11-30T12:09:59.045Z,95020.41
2022-11-30T12:12:29.635Z,95025.69
2022-11-30T12:14:59.014Z,95025.28
2022-11-30T12:17:44.915Z,95015.56
2022-11-30T12:20:24.823Z,95022.88
2022-11-30T12:23:17.781Z,95028.31
2022-11-30T12:25:56.894Z,95030.31
2022-11-30T12:28:35.709Z,95024.25
2022-11-30T12:31:14.788Z,95018.41
2022-11-30T12:34:03.700Z,95021.44
2022-11-30T12:36:44.742Z,95021.03
2022-11-30T12:39:23.205Z,95026.91
2022-11-30T12:41:56.303Z,95020.41
2022-11-30T12:44:42.148Z,95031.34
2022-11-30T12:47:30.195Z,95033.41
2022-11-30T12:50:24.148Z,95034.59
2022-11-30T12:53:05.563Z,95041.88
2022-11-30T12:55:41.939Z,95037.47
2022-11-30T12:58:21.061Z,95041.66
2022-11-30T13:01:05.493Z,95039.25
2022-11-30T13:03:44.952Z,95023.28
2022-11-30T13:06:18.253Z,95029.75
2022-11-30T13:08:57.359Z,95031.97
2022-11-30T13:11:33.864Z,95034.63
2022-11-30T13:14:13.117Z,95034.41
2022-11-30T13:16:44.675Z,95036.63
2022-11-30T13:19:31.132Z,95028.94
2022-11-30T13:22:05.788Z,95036.63
2022-11-30T13:24:39.362Z,95050.38
2022-11-30T13:27:15.656Z,95039.47
2022-11-30T13:30:07.905Z,95046.53
2022-11-30T13:35:46.650Z,95051.78
2022-11-30T13:38:36.459Z,95041.28
2022-11-30T13:41:09.057Z,95040.66
2022-11-30T13:43:44.462Z,95043.28
2022-11-30T13:46:17.320Z,95043.50
2022-11-30T13:48:49.656Z,95026.31
2022-11-30T13:51:37.801Z,95028.56
2022-11-30T13:54:43.837Z,95031.38
2022-11-30T13:57:42.108Z,95034.41
2022-11-30T14:01:02.963Z,95022.47
2022-11-30T14:03:33.531Z,95013.59
2022-11-30T14:06:38.973Z,95007.53
2022-11-30T14:09:14.906Z,95003.09
2022-11-30T14:11:45.888Z,95010.56
2022-11-30T14:14:45.739Z,94999.47
2022-11-30T14:17:23.880Z,94997.03
2022-11-30T14:19:55.446Z,94998.44
2022-11-30T14:22:28.337Z,95002.09
2022-11-30T14:24:58.210Z,94994.19
2022-11-30T14:27:31.361Z,94994.19
2022-11-30T14:30:19.217Z,94993.41
2022-11-30T14:32:54.684Z,94996.22
2022-11-30T14:35:24.623Z,94991.59
2022-11-30T14:37:56.669Z,94993.00
2022-11-30T14:40:28.053Z,94995.41
2022-11-30T14:43:00.556Z,95001.25
2022-11-30T14:45:31.811Z,95001.03
2022-11-30T14:48:09.078Z,95003.28
2022-11-30T14:50:39.544Z,95007.50
2022-11-30T14:53:27.799Z,95015.38
2022-11-30T14:56:03.941Z,95015.97
2022-11-30T14:58:39.427Z,95016.00
2022-11-30T15:01:19.995Z,95025.88
2022-11-30T15:03:51.284Z,95027.31
2022-11-30T15:06:24.242Z,95027.72
2022-11-30T15:08:57.973Z,95030.53
2022-11-30T15:11:27.783Z,95035.78
2022-11-30T15:13:59.162Z,95049.34
2022-11-30T15:16:30.460Z,95057.03
2022-11-30T15:19:00.979Z,95059.22
2022-11-30T15:21:34.014Z,95058.41
2022-11-30T15:24:04.738Z,95058.41
2022-11-30T15:26:38.624Z,95066.94
2022-11-30T15:29:10.478Z,95057.00
2022-11-30T15:31:43.807Z,95063.28
2022-11-30T15:34:21.122Z,95065.09
2022-11-30T15:36:56.118Z,95069.56
2022-11-30T15:39:29.747Z,95061.25
2022-11-30T15:42:01.407Z,95050.75
2022-11-30T15:44:41.787Z,95049.34
2022-11-30T15:47:26.460Z,95053.97
2022-11-30T15:49:57.832Z,95056.59
2022-11-30T15:52:29.179Z,95058.19
2022-11-30T15:55:03.715Z,95054.75
2022-11-30T15:58:05.850Z,95053.53
2022-11-30T16:00:35.237Z,95048.84
2022-11-30T16:03:19.383Z,95044.41
2022-11-30T16:05:58.298Z,95052.72
2022-11-30T16:08:28.280Z,95058.34
2022-11-30T16:11:01.975Z,95056.91
2022-11-30T16:13:35.991Z,95059.16
2022-11-30T16:16:13.670Z,95064.84
2022-11-30T16:18:43.043Z,95065.22
2022-11-30T16:21:16.734Z,95066.63
2022-11-30T16:23:46.769Z,95060.19
2022-11-30T16:26:43.692Z,95062.22
2022-11-30T16:29:10.187Z,95068.84
2022-11-30T16:31:45.843Z,95062.19
2022-11-30T16:34:15.120Z,95063.22
2022-11-30T16:36:44.262Z,95066.63
2022-11-30T16:39:15.761Z,95063.41
2022-11-30T16:41:46.820Z,95069.66
2022-11-30T16:44:16.276Z,95064.59
2022-11-30T16:46:45.762Z,95066.19
2022-11-30T16:49:14.985Z,95063.97
2022-11-30T16:51:44.403Z,95076.09
2022-11-30T16:54:14.698Z,95064.53
2022-11-30T16:56:47.121Z,95063.97
2022-11-30T16:59:17.359Z,95065.41
2022-11-30T17:01:52.941Z,95068.81
2022-11-30T17:04:24.498Z,95068.59
2022-11-30T17:07:00.557Z,95054.91
2022-11-30T17:09:35.027Z,95070.66
2022-11-30T17:12:06.090Z,95065.59
2022-11-30T17:14:35.324Z,95070.47
2022-11-30T17:17:05.481Z,95068.66
2022-11-30T17:19:34.817Z,95071.28
2022-11-30T17:22:04.786Z,95069.03
2022-11-30T17:24:34.866Z,95075.91
2022-11-30T17:27:06.031Z,95068.84
2022-11-30T17:29:35.432Z,95076.53
2022-11-30T17:32:04.667Z,95068.66
2022-11-30T17:34:34.956Z,95077.72
2022-11-30T17:37:04.205Z,95077.13
2022-11-30T17:39:34.279Z,95079.53
2022-11-30T17:42:10.103Z,95072.03
2022-11-30T17:44:39.342Z,95071.41
2022-11-30T17:47:09.315Z,95073.84
2022-11-30T17:49:38.507Z,95063.34
2022-11-30T17:52:08.928Z,95077.28
2022-11-30T17:54:38.893Z,95075.28
2022-11-30T17:57:10.333Z,95085.41
2022-11-30T17:59:40.537Z,95080.53
2022-11-30T18:02:12.415Z,95081.34
2022-11-30T18:04:41.863Z,95080.16
2022-11-30T18:07:12.497Z,95088.00
2022-11-30T18:09:43.059Z,95083.78
2022-11-30T18:12:14.304Z,95081.00
2022-11-30T18:14:43.831Z,95075.53
2022-11-30T18:17:13.129Z,95082.41
2022-11-30T18:19:43.184Z,95077.38
2022-11-30T18:22:12.630Z,95082.19
2022-11-30T18:24:41.954Z,95082.00
2022-11-30T18:27:12.466Z,95092.69
2022-11-30T18:29:45.698Z,95081.81
2022-11-30T18:32:15.243Z,95075.75
2022-11-30T18:34:49.519Z,95073.53
2022-11-30T18:37:19.272Z,95074.53
2022-11-30T18:39:48.666Z,95079.38
2022-11-30T18:42:18.436Z,95077.78
2022-11-30T18:44:49.047Z,95084.06
2022-11-30T18:47:25.795Z,95085.44
2022-11-30T18:49:56.875Z,95084.63
2022-11-30T18:52:26.545Z,95080.63
2022-11-30T18:54:57.679Z,95084.03
2022-11-30T18:57:27.046Z,95091.50
2022-11-30T18:59:57.853Z,95080.63
2022-11-30T19:02:27.009Z,95094.72
2022-11-30T19:04:58.920Z,95093.13
2022-11-30T19:07:28.223Z,95081.19
2022-11-30T19:09:57.554Z,95088.50
2022-11-30T19:12:26.923Z,95083.81
2022-11-30T19:14:57.810Z,95085.25
2022-11-30T19:17:27.377Z,95088.44
2022-11-30T19:19:56.940Z,95083.53
2022-11-30T19:22:30.307Z,95087.78
2022-11-30T19:24:59.732Z,95083.53
2022-11-30T19:27:28.890Z,95093.22
2022-11-30T19:30:06.145Z,95090.34
2022-11-30T19:32:35.836Z,95099.84
2022-11-30T19:35:05.601Z,95101.06
2022-11-30T19:37:35.309Z,95091.34
2022-11-30T19:40:04.709Z,95100.59
2022-11-30T19:42:34.067Z,95095.34
2022-11-30T19:45:04.944Z,95092.31
2022-11-30T19:47:35.118Z,95098.94
2022-11-30T19:50:04.501Z,95103.38
2022-11-30T19:52:34.127Z,95102.81
2022-11-30T19:55:03.822Z,95101.38
2022-11-30T19:57:34.402Z,95090.50
2022-11-30T20:00:06.636Z,95096.41
2022-11-30T20:02:42.240Z,95099.19
2022-11-30T20:05:11.816Z,95093.97
2022-11-30T20:07:42.625Z,95096.97
2022-11-30T20:10:30.628Z,95102.63
2022-11-30T20:13:01.393Z,95097.94
2022-11-30T20:15:32.195Z,95114.69
2022-11-30T20:18:01.307Z,95104.44
2022-11-30T20:20:47.481Z,95101.03
2022-11-30T20:23:17.019Z,95100.63
2022-11-30T20:25:46.344Z,95101.44
2022-11-30T20:28:18.194Z,95094.00
2022-11-30T20:30:48.777Z,95099.47
2022-11-30T20:33:17.821Z,95099.06
2022-11-30T20:35:47.075Z,95101.69
2022-11-30T20:38:16.640Z,95104.75
2022-11-30T20:40:48.340Z,95100.94
2022-11-30T20:43:17.525Z,95112.47
2022-11-30T20:45:48.460Z,95121.75
2022-11-30T20:48:17.647Z,95122.00
2022-11-30T20:51:01.104Z,95126.00
2022-11-30T20:53:36.677Z,95108.81
2022-11-30T20:56:06.117Z,95112.88
2022-11-30T20:58:35.359Z,95107.63
2022-11-30T21:01:12.227Z,95117.09
2022-11-30T21:03:42.184Z,95107.81
2022-11-30T21:06:12.914Z,95109.25
2022-11-30T21:08:42.560Z,95107.00
2022-11-30T21:11:13.417Z,95114.31
2022-11-30T21:13:51.207Z,95107.81
2022-11-30T21:16:27.590Z,95116.31
2022-11-30T21:19:02.147Z,95106.59
2022-11-30T21:21:33.788Z,95106.56
2022-11-30T21:24:21.746Z,95114.03
2022-11-30T21:26:50.530Z,95112.22
2022-11-30T21:29:20.002Z,95117.44
2022-11-30T21:31:50.599Z,95114.81
2022-11-30T21:34:19.749Z,95123.88
2022-11-30T21:36:49.188Z,95115.81
2022-11-30T21:39:18.324Z,95125.50
2022-11-30T21:42:00.488Z,95120.63
2022-11-30T21:44:30.084Z,95120.44
2022-11-30T21:47:01.074Z,95117.25
2022-11-30T21:49:30.724Z,95124.53
2022-11-30T21:51:59.855Z,95114.44
2022-11-30T21:54:29.297Z,95119.88
2022-11-30T21:56:58.382Z,95122.72
2022-11-30T21:59:28.182Z,95123.56
2022-11-30T22:01:57.134Z,95125.31
2022-11-30T22:04:28.675Z,95119.28
2022-11-30T22:06:57.747Z,95117.66
2022-11-30T22:09:26.948Z,95115.06
2022-11-30T22:11:56.852Z,95111.41
2022-11-30T22:14:26.305Z,95112.63
2022-11-30T22:16:55.488Z,95100.69
2022-11-30T22:19:24.657Z,95099.91
2022-11-30T22:21:55.234Z,95089.41
2022-11-30T22:24:24.652Z,95100.84
2022-11-30T22:26:53.679Z,95096.03
2022-11-30T22:29:24.685Z,95094.44
2022-11-30T22:31:55.534Z,95089.59
2022-11-30T22:34:24.798Z,95092.22
2022-11-30T22:36:55.382Z,95082.53
2022-11-30T22:39:24.923Z,95079.28
2022-11-30T22:41:56.296Z,95075.66
2022-11-30T22:44:27.127Z,95075.50
2022-11-30T22:46:57.789Z,95079.72
2022-11-30T22:49:27.188Z,95073.03
2022-11-30T22:51:57.791Z,95079.34
2022-11-30T22:54:27.038Z,95079.34
2022-11-30T22:56:56.334Z,95081.34
2022-11-30T22:59:25.378Z,95080.16
2022-11-30T23:01:54.512Z,95075.09
2022-11-30T23:04:24.110Z,95082.97
2022-11-30T23:06:54.791Z,95087.84
2022-11-30T23:09:25.625Z,95080.97
2022-11-30T23:11:55.124Z,95078.28
2022-11-30T23:14:24.394Z,95082.97
2022-11-30T23:16:53.542Z,95072.41
2022-11-30T23:19:22.634Z,95077.28
2022-11-30T23:21:51.694Z,95075.66
2022-11-30T23:24:22.280Z,95073.81
2022-11-30T23:26:52.997Z,95075.66
2022-11-30T23:29:22.018Z,95079.28
2022-11-30T23:31:51.133Z,95075.41
2022-11-30T23:34:21.906Z,95074.41
2022-11-30T23:36:51.812Z,95075.84
2022-11-30T23:39:22.061Z,95068.72
2022-11-30T23:41:52.743Z,95057.47
2022-11-30T23:44:21.794Z,95061.47
2022-11-30T23:46:51.177Z,95065.53
2022-11-30T23:49:20.259Z,95056.03
2022-11-30T23:51:49.230Z,95063.50
2022-11-30T23:54:18.380Z,95072.56
2022-11-30T23:56:47.382Z,95071.34
2022-11-30T23:59:17.830Z,95069.47
